createdAt,value
2023-05-10T00:00:47.699Z,10.97
2023-05-10T00:03:10.423Z,11.01
2023-05-10T00:05:33.700Z,11.10
2023-05-10T00:07:56.365Z,11.04
2023-05-10T00:10:19.343Z,10.99
2023-05-10T00:12:41.973Z,10.89
2023-05-10T00:15:05.245Z,10.89
2023-05-10T00:17:27.859Z,10.80
2023-05-10T00:19:50.769Z,10.72
2023-05-10T00:22:13.660Z,10.61
2023-05-10T00:24:36.377Z,10.62
2023-05-10T00:26:58.991Z,10.51
2023-05-10T00:29:21.686Z,10.56
2023-05-10T00:31:44.395Z,10.49
2023-05-10T00:34:07.194Z,10.42
2023-05-10T00:36:30.054Z,10.34
2023-05-10T00:38:52.951Z,10.40
2023-05-10T00:41:16.269Z,10.38
2023-05-10T00:43:39.041Z,10.30
2023-05-10T00:46:01.982Z,10.22
2023-05-10T00:48:25.089Z,10.18
2023-05-10T00:50:48.222Z,10.14
2023-05-10T00:53:11.340Z,10.11
2023-05-10T00:55:34.028Z,10.15
2023-05-10T00:57:57.078Z,10.13
2023-05-10T01:00:20.191Z,10.25
2023-05-10T01:02:43.416Z,10.28
2023-05-10T01:05:07.041Z,10.24
2023-05-10T01:07:29.932Z,10.20
2023-05-10T01:09:52.976Z,10.30
2023-05-10T01:12:16.321Z,10.37
2023-05-10T01:14:39.274Z,10.40
2023-05-10T01:17:03.289Z,10.45
2023-05-10T01:19:28.016Z,10.53
2023-05-10T01:21:59.615Z,10.62
2023-05-10T01:24:41.110Z,10.63
2023-05-10T01:27:44.084Z,10.66
2023-05-10T01:30:22.584Z,10.63
2023-05-10T01:32:51.631Z,10.62
2023-05-10T01:35:33.088Z,10.51
2023-05-10T01:38:08.859Z,10.45
2023-05-10T01:40:35.169Z,10.48
2023-05-10T01:43:07.614Z,10.48
2023-05-10T01:45:36.102Z,10.46
2023-05-10T01:48:12.749Z,10.42
2023-05-10T01:50:38.817Z,10.46
2023-05-10T01:53:03.770Z,10.46
2023-05-10T01:55:31.449Z,10.44
2023-05-10T01:58:10.289Z,10.46
2023-05-10T02:00:34.433Z,10.55
2023-05-10T02:02:57.583Z,10.55
2023-05-10T02:05:21.592Z,10.59
2023-05-10T02:07:45.405Z,10.61
2023-05-10T02:10:10.398Z,10.66
2023-05-10T02:12:38.697Z,10.75
2023-05-10T02:15:03.641Z,10.75
2023-05-10T02:17:26.949Z,10.84
2023-05-10T02:19:52.117Z,10.95
2023-05-10T02:22:16.439Z,10.99
2023-05-10T02:24:40.874Z,10.88
2023-05-10T02:27:04.882Z,10.86
2023-05-10T02:29:28.390Z,10.88
2023-05-10T02:31:53.763Z,10.93
2023-05-10T02:34:16.531Z,11.00
2023-05-10T02:36:40.761Z,10.97
2023-05-10T02:39:03.930Z,11.03
2023-05-10T02:41:28.040Z,10.93
2023-05-10T02:43:54.508Z,10.92
2023-05-10T02:46:17.298Z,11.01
2023-05-10T02:48:40.188Z,11.00
2023-05-10T02:51:08.205Z,11.04
2023-05-10T02:53:33.275Z,10.99
2023-05-10T02:55:59.869Z,10.96
2023-05-10T02:58:22.842Z,10.77
2023-05-10T03:00:46.259Z,10.80
2023-05-10T03:03:09.489Z,10.73
2023-05-10T03:05:32.518Z,10.66
2023-05-10T03:07:58.012Z,10.62
2023-05-10T03:10:27.502Z,10.48
2023-05-10T03:12:54.926Z,10.45
2023-05-10T03:15:39.080Z,10.38
2023-05-10T03:18:28.185Z,10.32
2023-05-10T03:20:56.670Z,10.28
2023-05-10T03:23:22.693Z,10.30
2023-05-10T03:25:47.840Z,10.21
2023-05-10T03:28:11.021Z,10.24
2023-05-10T03:30:34.613Z,10.30
2023-05-10T03:32:58.102Z,10.21
2023-05-10T03:35:21.163Z,10.30
2023-05-10T03:37:43.978Z,10.18
2023-05-10T03:40:07.534Z,10.15
2023-05-10T03:42:32.551Z,10.13
2023-05-10T03:44:55.192Z,10.22
2023-05-10T03:47:17.773Z,10.24
2023-05-10T03:49:40.508Z,10.24
2023-05-10T03:52:03.512Z,10.30
2023-05-10T03:54:27.594Z,10.24
2023-05-10T03:56:50.211Z,10.30
2023-05-10T03:59:14.794Z,10.31
2023-05-10T04:01:37.414Z,10.35
2023-05-10T04:04:00.224Z,10.40
2023-05-10T04:06:23.271Z,10.40
2023-05-10T04:08:46.691Z,10.49
2023-05-10T04:11:10.513Z,10.52
2023-05-10T04:13:33.319Z,10.40
2023-05-10T04:15:55.839Z,10.51
2023-05-10T04:18:18.856Z,10.75
2023-05-10T04:20:41.637Z,10.97
2023-05-10T04:23:04.281Z,11.45
2023-05-10T04:25:26.833Z,11.76
2023-05-10T04:27:49.478Z,12.14
2023-05-10T04:30:12.558Z,12.33
2023-05-10T04:32:35.692Z,12.52
2023-05-10T04:34:58.301Z,12.65
2023-05-10T04:37:22.416Z,12.42
2023-05-10T04:39:45.104Z,12.23
2023-05-10T04:42:08.226Z,12.31
2023-05-10T04:44:31.736Z,12.36
2023-05-10T04:46:54.417Z,12.23
2023-05-10T04:49:17.801Z,12.26
2023-05-10T04:51:40.632Z,12.19
2023-05-10T04:54:06.427Z,12.37
2023-05-10T04:56:29.712Z,12.27
2023-05-10T04:58:52.342Z,12.19
2023-05-10T05:01:15.096Z,12.34
2023-05-10T05:03:38.095Z,12.48
2023-05-10T05:06:00.846Z,12.45
2023-05-10T05:08:23.904Z,12.60
2023-05-10T05:10:46.546Z,12.67
2023-05-10T05:13:09.266Z,12.81
2023-05-10T05:15:31.932Z,12.96
2023-05-10T05:17:54.776Z,13.15
2023-05-10T05:20:18.343Z,13.23
2023-05-10T05:22:41.455Z,13.30
2023-05-10T05:25:04.533Z,13.48
2023-05-10T05:27:28.952Z,13.43
2023-05-10T05:29:53.237Z,13.53
2023-05-10T05:32:15.937Z,13.63
2023-05-10T05:34:38.565Z,13.60
2023-05-10T05:37:01.329Z,13.85
2023-05-10T05:39:24.118Z,13.94
2023-05-10T05:41:47.480Z,14.20
2023-05-10T05:44:10.201Z,14.55
2023-05-10T05:46:33.242Z,14.77
2023-05-10T05:48:55.941Z,14.74
2023-05-10T05:51:18.592Z,14.87
2023-05-10T05:53:41.403Z,15.05
2023-05-10T05:56:04.764Z,15.11
2023-05-10T05:58:28.024Z,15.06
2023-05-10T06:00:51.371Z,15.25
2023-05-10T06:03:14.102Z,15.04
2023-05-10T06:05:36.851Z,14.83
2023-05-10T06:08:01.555Z,14.66
2023-05-10T06:10:24.174Z,14.89
2023-05-10T06:12:46.927Z,15.84
2023-05-10T06:15:10.419Z,15.64
2023-05-10T06:17:33.217Z,15.12
2023-05-10T06:19:56.562Z,14.98
2023-05-10T06:22:19.285Z,14.99
2023-05-10T06:24:42.555Z,15.02
2023-05-10T06:27:05.366Z,15.05
2023-05-10T06:29:28.031Z,14.81
2023-05-10T06:31:50.774Z,14.74
2023-05-10T06:34:14.557Z,14.88
2023-05-10T06:36:37.320Z,15.21
2023-05-10T06:39:00.158Z,15.39
2023-05-10T06:41:24.736Z,15.39
2023-05-10T06:43:47.741Z,15.25
2023-05-10T06:46:10.601Z,15.24
2023-05-10T06:48:33.776Z,15.31
2023-05-10T06:50:56.421Z,15.47
2023-05-10T06:53:38.950Z,15.31
2023-05-10T06:56:01.774Z,15.09
2023-05-10T06:58:24.406Z,15.24
2023-05-10T07:00:48.117Z,15.19
2023-05-10T07:03:11.895Z,15.32
2023-05-10T07:05:34.931Z,15.32
2023-05-10T07:07:57.626Z,15.50
2023-05-10T07:10:20.413Z,15.50
2023-05-10T07:12:43.302Z,15.46
2023-05-10T07:15:06.885Z,15.67
2023-05-10T07:17:29.790Z,15.79
2023-05-10T07:19:52.548Z,15.70
2023-05-10T07:22:16.191Z,15.87
2023-05-10T07:24:38.975Z,15.74
2023-05-10T07:27:01.673Z,15.79
2023-05-10T07:29:24.362Z,15.93
2023-05-10T07:31:47.225Z,16.07
2023-05-10T07:34:10.364Z,16.22
2023-05-10T07:36:33.532Z,16.39
2023-05-10T07:38:57.592Z,16.36
2023-05-10T07:41:20.230Z,16.70
2023-05-10T07:43:42.974Z,16.80
2023-05-10T07:46:06.464Z,17.06
2023-05-10T07:48:29.411Z,16.90
2023-05-10T07:50:52.424Z,16.94
2023-05-10T07:53:15.250Z,17.08
2023-05-10T07:55:37.892Z,17.28
2023-05-10T07:58:03.766Z,17.30
2023-05-10T08:00:28.340Z,17.61
2023-05-10T08:02:57.483Z,17.68
2023-05-10T08:05:27.350Z,17.15
2023-05-10T08:07:52.930Z,16.86
2023-05-10T08:10:15.563Z,16.62
2023-05-10T08:12:39.298Z,17.11
2023-05-10T08:15:01.958Z,17.18
2023-05-10T08:17:24.960Z,17.02
2023-05-10T08:19:47.530Z,17.15
2023-05-10T08:22:10.372Z,17.30
2023-05-10T08:24:32.983Z,17.18
2023-05-10T08:26:56.125Z,17.00
2023-05-10T08:29:18.840Z,16.81
2023-05-10T08:31:41.524Z,16.86
2023-05-10T08:34:04.213Z,16.90
2023-05-10T08:36:27.510Z,17.20
2023-05-10T08:38:53.242Z,17.17
2023-05-10T08:41:15.980Z,16.81
2023-05-10T08:43:39.265Z,16.65
2023-05-10T08:46:04.102Z,16.73
2023-05-10T08:48:30.046Z,16.99
2023-05-10T08:50:58.586Z,17.39
2023-05-10T08:53:22.237Z,17.55
2023-05-10T08:55:45.018Z,17.55
2023-05-10T08:58:07.992Z,17.87
2023-05-10T09:00:31.890Z,17.52
2023-05-10T09:02:54.822Z,17.62
2023-05-10T09:05:18.972Z,17.75
2023-05-10T09:07:42.556Z,17.96
2023-05-10T09:10:06.442Z,17.93
2023-05-10T09:12:29.270Z,17.76
2023-05-10T09:14:53.649Z,17.76
2023-05-10T09:17:57.906Z,18.28
2023-05-10T09:20:20.804Z,18.34
2023-05-10T09:22:43.335Z,18.51
2023-05-10T09:25:06.387Z,18.62
2023-05-10T09:27:29.270Z,18.41
2023-05-10T09:29:55.445Z,18.61
2023-05-10T09:32:18.039Z,18.85
2023-05-10T09:34:41.447Z,18.38
2023-05-10T09:37:07.255Z,17.97
2023-05-10T09:39:39.280Z,17.69
2023-05-10T09:42:10.181Z,17.91
2023-05-10T09:44:34.591Z,17.99
2023-05-10T09:46:57.226Z,17.87
2023-05-10T09:49:21.889Z,18.13
2023-05-10T09:51:44.922Z,18.28
2023-05-10T09:54:12.659Z,18.76
2023-05-10T09:56:41.149Z,18.47
2023-05-10T09:59:04.550Z,18.38
2023-05-10T10:01:27.726Z,18.37
2023-05-10T10:03:51.095Z,18.13
2023-05-10T10:06:29.587Z,17.99
2023-05-10T10:08:56.240Z,18.04
2023-05-10T10:11:19.518Z,18.34
2023-05-10T10:13:42.150Z,18.86
2023-05-10T10:16:05.311Z,18.81
2023-05-10T10:18:29.767Z,18.57
2023-05-10T10:20:53.316Z,18.24
2023-05-10T10:23:17.603Z,18.30
2023-05-10T10:25:40.834Z,18.40
2023-05-10T10:28:26.123Z,18.54
2023-05-10T10:30:54.745Z,18.43
2023-05-10T10:33:27.722Z,18.27
2023-05-10T10:35:53.435Z,18.07
2023-05-10T10:38:16.593Z,18.65
2023-05-10T10:40:39.734Z,18.92
2023-05-10T10:43:25.154Z,19.13
2023-05-10T10:46:15.349Z,18.98
2023-05-10T10:48:38.227Z,19.03
2023-05-10T10:51:01.464Z,19.07
2023-05-10T10:53:29.087Z,18.88
2023-05-10T10:56:07.188Z,18.66
2023-05-10T10:58:32.814Z,18.75
2023-05-10T11:01:11.694Z,19.12
2023-05-10T11:03:34.492Z,19.51
2023-05-10T11:05:59.776Z,19.85
2023-05-10T11:08:34.015Z,20.09
2023-05-10T11:11:01.040Z,20.19
2023-05-10T11:13:32.874Z,19.90
2023-05-10T11:15:58.160Z,19.60
2023-05-10T11:18:28.115Z,19.40
2023-05-10T11:21:03.815Z,19.28
2023-05-10T11:23:32.476Z,19.27
2023-05-10T11:25:55.462Z,19.55
2023-05-10T11:28:20.684Z,19.72
2023-05-10T11:30:45.682Z,19.60
2023-05-10T11:33:09.820Z,19.46
2023-05-10T11:35:41.027Z,19.65
2023-05-10T11:38:07.592Z,19.96
2023-05-10T11:40:30.229Z,19.95
2023-05-10T11:42:52.997Z,19.82
2023-05-10T11:45:16.212Z,19.72
2023-05-10T11:47:42.645Z,19.57
2023-05-10T11:50:07.025Z,19.55
2023-05-10T11:52:30.209Z,19.70
2023-05-10T11:54:54.539Z,20.09
2023-05-10T11:57:17.212Z,20.15
2023-05-10T11:59:42.473Z,19.74
2023-05-10T12:02:05.921Z,19.74
2023-05-10T12:04:30.601Z,19.72
2023-05-10T12:06:53.546Z,19.89
2023-05-10T12:09:17.673Z,19.93
2023-05-10T12:11:44.247Z,19.74
2023-05-10T12:14:07.807Z,19.89
2023-05-10T12:16:31.016Z,19.79
2023-05-10T12:18:56.914Z,19.85
2023-05-10T12:21:21.503Z,19.89
2023-05-10T12:23:47.019Z,19.85
2023-05-10T12:26:11.277Z,19.88
2023-05-10T12:28:34.616Z,20.26
2023-05-10T12:30:58.988Z,20.44
2023-05-10T12:33:21.578Z,20.20
2023-05-10T12:35:52.750Z,20.57
2023-05-10T12:38:30.495Z,20.08
2023-05-10T12:40:53.309Z,20.16
2023-05-10T12:43:16.174Z,20.26
2023-05-10T12:45:38.859Z,20.36
2023-05-10T12:48:01.659Z,20.43
2023-05-10T12:50:25.377Z,20.57
2023-05-10T12:52:48.089Z,20.75
2023-05-10T12:55:11.078Z,21.01
2023-05-10T12:57:33.754Z,20.70
2023-05-10T12:59:56.853Z,20.27
2023-05-10T13:02:19.529Z,20.08
2023-05-10T13:04:43.024Z,20.10
2023-05-10T13:07:05.694Z,19.96
2023-05-10T13:09:31.942Z,20.06
2023-05-10T13:11:55.304Z,20.29
2023-05-10T13:14:18.125Z,20.12
2023-05-10T13:16:40.733Z,20.15
2023-05-10T13:19:04.049Z,20.08
2023-05-10T13:21:27.164Z,20.16
2023-05-10T13:23:50.152Z,20.13
2023-05-10T13:26:12.662Z,20.36
2023-05-10T13:28:35.391Z,20.53
2023-05-10T13:30:58.204Z,20.47
2023-05-10T13:33:21.108Z,20.54
2023-05-10T13:35:43.765Z,20.46
2023-05-10T13:38:09.062Z,20.48
2023-05-10T13:40:31.982Z,20.53
2023-05-10T13:42:54.879Z,19.98
2023-05-10T13:45:17.732Z,19.79
2023-05-10T13:47:40.645Z,19.53
2023-05-10T13:50:04.495Z,19.74
2023-05-10T13:52:27.729Z,19.79
2023-05-10T13:54:50.488Z,19.72
2023-05-10T13:57:15.002Z,19.67
2023-05-10T13:59:37.631Z,19.99
2023-05-10T14:02:03.545Z,20.39
2023-05-10T14:04:26.556Z,20.51
2023-05-10T14:06:49.204Z,20.51
2023-05-10T14:09:11.880Z,20.29
2023-05-10T14:11:34.543Z,20.19
2023-05-10T14:13:57.314Z,20.16
2023-05-10T14:18:43.803Z,20.47
2023-05-10T14:21:06.492Z,20.78
2023-05-10T14:23:29.854Z,20.64
2023-05-10T14:25:55.629Z,20.78
2023-05-10T14:28:19.401Z,20.71
2023-05-10T14:30:41.986Z,20.77
2023-05-10T14:33:04.697Z,20.68
2023-05-10T14:35:46.343Z,20.67
2023-05-10T14:38:11.437Z,20.70
2023-05-10T14:40:34.593Z,20.75
2023-05-10T14:42:57.461Z,20.94
2023-05-10T14:45:20.625Z,20.26
2023-05-10T14:47:43.279Z,20.17
2023-05-10T14:50:06.686Z,20.05
2023-05-10T14:52:29.442Z,20.23
2023-05-10T14:54:52.089Z,20.09
2023-05-10T14:57:15.053Z,20.17
2023-05-10T14:59:37.644Z,19.93
2023-05-10T15:02:00.857Z,19.96
2023-05-10T15:04:23.747Z,20.10
2023-05-10T15:06:47.293Z,20.30
2023-05-10T15:09:10.020Z,20.48
2023-05-10T15:11:33.179Z,20.65
2023-05-10T15:13:56.120Z,20.74
2023-05-10T15:16:18.842Z,20.90
2023-05-10T15:18:41.459Z,20.90
2023-05-10T15:21:04.438Z,20.57
2023-05-10T15:23:27.634Z,20.58
2023-05-10T15:25:53.291Z,20.57
2023-05-10T15:28:15.867Z,20.53
2023-05-10T15:30:38.727Z,20.32
2023-05-10T15:33:01.356Z,20.16
2023-05-10T15:35:24.040Z,20.02
2023-05-10T15:37:48.312Z,19.88
2023-05-10T15:40:11.574Z,19.90
2023-05-10T15:42:34.249Z,19.68
2023-05-10T15:44:57.045Z,19.67
2023-05-10T15:47:19.710Z,19.85
2023-05-10T15:49:42.401Z,19.64
2023-05-10T15:52:04.976Z,19.40
2023-05-10T15:54:27.686Z,19.34
2023-05-10T15:56:50.242Z,19.47
2023-05-10T15:59:13.228Z,19.44
2023-05-10T16:01:35.877Z,19.40
2023-05-10T16:03:58.644Z,19.31
2023-05-10T16:06:21.744Z,19.44
2023-05-10T16:08:44.722Z,19.43
2023-05-10T16:11:08.201Z,19.43
2023-05-10T16:13:30.806Z,19.49
2023-05-10T16:15:53.962Z,19.50
2023-05-10T16:18:18.186Z,19.41
2023-05-10T16:20:41.559Z,19.27
2023-05-10T16:23:06.487Z,19.33
2023-05-10T16:25:29.154Z,19.24
2023-05-10T16:27:51.813Z,19.20
2023-05-10T16:30:14.644Z,19.19
2023-05-10T16:32:37.546Z,19.14
2023-05-10T16:35:00.439Z,19.07
2023-05-10T16:37:23.098Z,19.04
2023-05-10T16:39:45.743Z,19.09
2023-05-10T16:42:08.351Z,18.91
2023-05-10T16:44:31.156Z,18.82
2023-05-10T16:46:54.985Z,18.77
2023-05-10T16:49:17.772Z,18.54
2023-05-10T16:51:41.017Z,18.52
2023-05-10T16:54:03.810Z,18.52
2023-05-10T16:56:26.908Z,18.48
2023-05-10T16:58:50.063Z,18.45
2023-05-10T17:01:13.062Z,18.40
2023-05-10T17:03:35.873Z,18.45
2023-05-10T17:05:59.080Z,18.45
2023-05-10T17:08:22.167Z,18.48
2023-05-10T17:10:44.714Z,18.41
2023-05-10T17:13:09.385Z,18.36
2023-05-10T17:15:33.026Z,18.26
2023-05-10T17:17:56.350Z,18.17
2023-05-10T17:20:19.062Z,18.16
2023-05-10T17:22:41.968Z,18.18
2023-05-10T17:25:04.954Z,18.13
2023-05-10T17:27:30.215Z,18.04
2023-05-10T17:29:59.246Z,18.00
2023-05-10T17:32:21.992Z,17.96
2023-05-10T17:34:44.734Z,17.90
2023-05-10T17:37:28.205Z,17.82
2023-05-10T17:39:50.816Z,17.76
2023-05-10T17:42:15.019Z,17.63
2023-05-10T17:44:37.736Z,17.52
2023-05-10T17:47:00.339Z,17.48
2023-05-10T17:49:23.238Z,17.41
2023-05-10T17:51:48.146Z,17.38
2023-05-10T17:54:11.044Z,17.36
2023-05-10T17:56:33.686Z,17.34
2023-05-10T17:58:56.385Z,17.31
2023-05-10T18:01:19.389Z,17.25
2023-05-10T18:03:42.181Z,17.20
2023-05-10T18:06:07.766Z,17.17
2023-05-10T18:08:30.821Z,17.10
2023-05-10T18:10:53.576Z,17.00
2023-05-10T18:13:18.605Z,16.96
2023-05-10T18:15:41.302Z,16.87
2023-05-10T18:18:05.097Z,16.83
2023-05-10T18:20:28.437Z,16.76
2023-05-10T18:22:52.126Z,16.69
2023-05-10T18:25:14.988Z,16.67
2023-05-10T18:27:38.688Z,16.59
2023-05-10T18:30:01.329Z,16.51
2023-05-10T18:32:24.355Z,16.53
2023-05-10T18:34:46.936Z,16.46
2023-05-10T18:37:10.176Z,16.46
2023-05-10T18:39:34.030Z,16.39
2023-05-10T18:41:56.876Z,16.32
2023-05-10T18:44:19.806Z,16.24
2023-05-10T18:46:42.988Z,16.17
2023-05-10T18:49:06.650Z,16.17
2023-05-10T18:51:32.278Z,16.14
2023-05-10T18:53:54.843Z,16.07
2023-05-10T18:56:17.571Z,16.00
2023-05-10T18:58:40.326Z,15.96
2023-05-10T19:01:02.986Z,15.89
2023-05-10T19:03:26.103Z,15.81
2023-05-10T19:05:49.034Z,15.84
2023-05-10T19:08:11.610Z,15.80
2023-05-10T19:10:34.472Z,15.69
2023-05-10T19:12:57.525Z,15.62
2023-05-10T19:15:21.773Z,15.57
2023-05-10T19:17:45.103Z,15.53
2023-05-10T19:20:09.085Z,15.56
2023-05-10T19:22:46.998Z,15.46
2023-05-10T19:25:17.056Z,15.42
2023-05-10T19:27:39.867Z,15.29
2023-05-10T19:30:02.481Z,15.25
2023-05-10T19:32:26.261Z,15.18
2023-05-10T19:34:49.101Z,15.16
2023-05-10T19:37:12.214Z,15.15
2023-05-10T19:39:35.124Z,15.09
2023-05-10T19:41:58.166Z,15.09
2023-05-10T19:44:23.958Z,15.05
2023-05-10T19:46:46.892Z,15.06
2023-05-10T19:49:09.786Z,15.02
2023-05-10T19:51:32.963Z,14.98
2023-05-10T19:53:55.939Z,14.98
2023-05-10T19:56:18.860Z,14.98
2023-05-10T19:59:22.649Z,14.94
2023-05-10T20:01:46.259Z,14.91
2023-05-10T20:04:10.221Z,14.92
2023-05-10T20:06:33.204Z,14.85
2023-05-10T20:08:55.952Z,14.83
2023-05-10T20:11:18.627Z,14.80
2023-05-10T20:13:41.329Z,14.77
2023-05-10T20:16:05.207Z,14.77
2023-05-10T20:18:27.891Z,14.83
2023-05-10T20:20:55.111Z,14.80
2023-05-10T20:23:17.915Z,14.83
2023-05-10T20:25:40.580Z,14.85
2023-05-10T20:28:03.831Z,14.78
2023-05-10T20:30:26.845Z,14.83
2023-05-10T20:32:50.091Z,14.80
2023-05-10T20:35:12.728Z,14.81
2023-05-10T20:37:35.505Z,14.81
2023-05-10T20:39:58.156Z,14.78
2023-05-10T20:42:22.445Z,14.78
2023-05-10T20:44:45.278Z,14.84
2023-05-10T20:47:08.050Z,14.80
2023-05-10T20:49:31.009Z,14.80
2023-05-10T20:51:54.471Z,14.78
2023-05-10T20:54:17.519Z,14.81
2023-05-10T20:56:40.410Z,14.80
2023-05-10T20:59:03.105Z,14.77
2023-05-10T21:01:26.450Z,14.80
2023-05-10T21:03:49.105Z,14.78
2023-05-10T21:06:11.906Z,14.74
2023-05-10T21:08:34.663Z,14.77
2023-05-10T21:10:57.301Z,14.70
2023-05-10T21:13:19.894Z,14.68
2023-05-10T21:15:42.491Z,14.70
2023-05-10T21:18:05.858Z,14.61
2023-05-10T21:20:29.343Z,14.53
2023-05-10T21:22:51.932Z,14.57
2023-05-10T21:25:14.711Z,14.49
2023-05-10T21:27:37.509Z,14.47
2023-05-10T21:30:00.308Z,14.40
2023-05-10T21:32:23.117Z,14.43
2023-05-10T21:34:45.852Z,14.44
2023-05-10T21:37:08.529Z,14.50
2023-05-10T21:39:31.185Z,14.51
2023-05-10T21:41:53.799Z,14.46
2023-05-10T21:44:16.537Z,14.47
2023-05-10T21:46:39.163Z,14.44
2023-05-10T21:49:01.762Z,14.50
2023-05-10T21:51:24.400Z,14.39
2023-05-10T21:53:47.071Z,14.32
2023-05-10T21:56:09.676Z,14.39
2023-05-10T21:58:32.268Z,14.28
2023-05-10T22:00:54.865Z,14.37
2023-05-10T22:03:18.228Z,14.33
2023-05-10T22:05:41.015Z,14.28
2023-05-10T22:08:03.949Z,14.20
2023-05-10T22:10:26.532Z,14.12
2023-05-10T22:12:49.133Z,14.09
2023-05-10T22:15:11.924Z,14.23
2023-05-10T22:17:34.906Z,14.29
2023-05-10T22:19:57.823Z,14.19
2023-05-10T22:22:20.623Z,14.06
2023-05-10T22:24:43.350Z,13.98
2023-05-10T22:27:06.359Z,14.01
2023-05-10T22:29:30.513Z,14.12
2023-05-10T22:31:53.162Z,14.18
2023-05-10T22:34:15.890Z,14.16
2023-05-10T22:36:38.506Z,14.22
2023-05-10T22:39:01.143Z,14.25
2023-05-10T22:41:23.712Z,14.23
2023-05-10T22:43:46.428Z,14.32
2023-05-10T22:46:09.361Z,14.36
2023-05-10T22:48:34.667Z,14.39
2023-05-10T22:50:57.330Z,14.41
2023-05-10T22:53:19.974Z,14.30
2023-05-10T22:55:42.656Z,14.29
2023-05-10T22:58:06.290Z,14.30
2023-05-10T23:00:29.151Z,14.28
2023-05-10T23:02:52.104Z,14.26
2023-05-10T23:05:14.727Z,14.22
2023-05-10T23:07:37.309Z,14.05
2023-05-10T23:10:00.210Z,14.04
2023-05-10T23:12:23.115Z,14.04
2023-05-10T23:14:46.680Z,13.79
2023-05-10T23:17:09.286Z,13.81
2023-05-10T23:19:31.856Z,13.81
2023-05-10T23:21:54.776Z,13.98
2023-05-10T23:24:17.907Z,13.91
2023-05-10T23:26:40.910Z,13.75
2023-05-10T23:29:03.526Z,13.68
2023-05-10T23:31:26.122Z,13.64
2023-05-10T23:33:48.691Z,13.68
2023-05-10T23:36:11.367Z,13.68
2023-05-10T23:38:35.048Z,13.67
2023-05-10T23:40:57.715Z,13.70
2023-05-10T23:43:21.677Z,13.60
2023-05-10T23:45:52.775Z,13.68
2023-05-10T23:48:15.500Z,13.71
2023-05-10T23:50:38.153Z,13.51
2023-05-10T23:53:01.216Z,13.44
2023-05-10T23:56:05.901Z,13.48
2023-05-10T23:58:29.666Z,13.54
